createdAt,value
2019-01-31T00:00:07.945Z,793.87
2019-01-31T00:01:07.942Z,793.86
2019-01-31T00:02:07.944Z,793.88
2019-01-31T00:03:07.942Z,793.84
2019-01-31T00:04:07.942Z,793.83
2019-01-31T00:05:07.941Z,793.81
2019-01-31T00:06:07.942Z,793.74
2019-01-31T00:07:07.947Z,793.80
2019-01-31T00:08:07.941Z,793.79
2019-01-31T00:09:07.940Z,793.80
2019-01-31T00:10:07.954Z,793.83
2019-01-31T00:11:07.939Z,793.83
2019-01-31T00:12:07.940Z,793.80
2019-01-31T00:13:07.938Z,793.80
2019-01-31T00:14:07.938Z,793.78
2019-01-31T00:15:07.947Z,793.79
2019-01-31T00:16:07.941Z,793.74
2019-01-31T00:17:07.937Z,793.74
2019-01-31T00:18:07.938Z,793.71
2019-01-31T00:19:07.939Z,793.70
2019-01-31T00:20:07.939Z,793.75
2019-01-31T00:21:07.943Z,793.73
2019-01-31T00:22:07.936Z,793.71
2019-01-31T00:23:07.939Z,793.71
2019-01-31T00:24:07.939Z,793.74
2019-01-31T00:25:07.936Z,793.79
2019-01-31T00:26:07.937Z,793.80
2019-01-31T00:27:07.935Z,793.81
2019-01-31T00:28:07.934Z,793.81
2019-01-31T00:29:07.935Z,793.84
2019-01-31T00:30:07.934Z,793.83
2019-01-31T00:31:07.937Z,793.80
2019-01-31T00:32:07.936Z,793.78
2019-01-31T00:33:07.933Z,793.73
2019-01-31T00:34:07.934Z,793.70
2019-01-31T00:35:07.936Z,793.77
2019-01-31T00:36:07.933Z,793.80
2019-01-31T00:37:07.932Z,793.85
2019-01-31T00:38:07.935Z,793.88
2019-01-31T00:39:07.933Z,793.86
2019-01-31T00:40:07.935Z,793.83
2019-01-31T00:41:07.932Z,793.80
2019-01-31T00:42:07.935Z,793.76
2019-01-31T00:43:07.934Z,793.80
2019-01-31T00:44:07.932Z,793.80
2019-01-31T00:45:07.931Z,793.74
2019-01-31T00:46:07.931Z,793.68
2019-01-31T00:47:07.931Z,793.61
2019-01-31T00:48:07.932Z,793.59
2019-01-31T00:49:07.932Z,793.64
2019-01-31T00:50:07.934Z,793.65
2019-01-31T00:51:07.973Z,793.67
2019-01-31T00:52:07.930Z,793.68
2019-01-31T00:53:07.942Z,793.66
2019-01-31T00:54:07.929Z,793.65
2019-01-31T00:55:07.930Z,793.64
2019-01-31T00:56:07.927Z,793.67
2019-01-31T00:57:07.932Z,793.76
2019-01-31T00:58:07.928Z,793.76
2019-01-31T00:59:07.929Z,793.78
2019-01-31T01:00:07.930Z,793.82
2019-01-31T01:01:07.928Z,793.78
2019-01-31T01:02:07.933Z,793.81
2019-01-31T01:03:07.936Z,793.85
2019-01-31T01:04:07.966Z,793.88
2019-01-31T01:05:07.934Z,793.92
2019-01-31T01:06:07.929Z,793.96
2019-01-31T01:07:07.928Z,793.98
2019-01-31T01:08:07.928Z,794.03
2019-01-31T01:09:08.243Z,794.00
2019-01-31T01:10:07.926Z,794.06
2019-01-31T01:11:07.927Z,794.13
2019-01-31T01:12:07.927Z,794.09
2019-01-31T01:13:07.966Z,794.11
2019-01-31T01:14:07.925Z,794.14
2019-01-31T01:15:07.926Z,794.12
2019-01-31T01:16:07.928Z,794.12
2019-01-31T01:17:07.924Z,794.14
2019-01-31T01:18:07.933Z,794.15
2019-01-31T01:19:07.924Z,794.19
2019-01-31T01:20:07.927Z,794.20
2019-01-31T01:21:07.926Z,794.16
2019-01-31T01:22:07.925Z,794.12
2019-01-31T01:23:07.925Z,794.07
2019-01-31T01:24:07.927Z,794.09
2019-01-31T01:25:07.923Z,794.10
2019-01-31T01:26:07.925Z,794.13
2019-01-31T01:27:07.923Z,794.10
2019-01-31T01:28:07.924Z,794.06
2019-01-31T01:29:07.924Z,794.13
2019-01-31T01:30:07.927Z,794.05
2019-01-31T01:31:07.925Z,793.98
2019-01-31T01:32:07.922Z,793.96
2019-01-31T01:33:07.922Z,793.96
2019-01-31T01:34:07.923Z,793.96
2019-01-31T01:35:07.922Z,793.95
2019-01-31T01:36:07.922Z,793.87
2019-01-31T01:37:07.921Z,793.87
2019-01-31T01:38:07.919Z,793.83
2019-01-31T01:39:18.674Z,793.78
2019-01-31T01:40:07.917Z,793.76
2019-01-31T01:41:07.918Z,793.77
2019-01-31T01:42:07.917Z,793.80
2019-01-31T01:43:07.916Z,793.84
2019-01-31T01:44:07.916Z,793.83
2019-01-31T01:45:07.918Z,793.83
2019-01-31T01:46:07.918Z,793.81
2019-01-31T01:47:07.916Z,793.77
2019-01-31T01:48:07.917Z,793.77
2019-01-31T01:49:07.915Z,793.76
2019-01-31T01:50:07.924Z,793.75
2019-01-31T01:51:07.918Z,793.70
2019-01-31T01:52:07.915Z,793.69
2019-01-31T01:53:07.916Z,793.66
2019-01-31T01:54:07.915Z,793.73
2019-01-31T01:55:07.913Z,793.77
2019-01-31T01:56:07.913Z,793.74
2019-01-31T01:57:07.912Z,793.74
2019-01-31T01:58:07.911Z,793.73
2019-01-31T01:59:07.910Z,793.70
2019-01-31T02:00:07.912Z,793.72
2019-01-31T02:01:07.912Z,793.72
2019-01-31T02:02:07.913Z,793.80
2019-01-31T02:03:07.913Z,793.82
2019-01-31T02:04:07.912Z,793.83
2019-01-31T02:05:07.911Z,793.78
2019-01-31T02:06:07.907Z,793.80
2019-01-31T02:07:07.907Z,793.83
2019-01-31T02:08:07.908Z,793.75
2019-01-31T02:09:07.907Z,793.74
2019-01-31T02:10:07.908Z,793.69
2019-01-31T02:11:07.908Z,793.69
2019-01-31T02:12:07.910Z,793.74
2019-01-31T02:13:07.906Z,793.75
2019-01-31T02:14:07.902Z,793.74
2019-01-31T02:15:07.961Z,793.68
2019-01-31T02:16:07.903Z,793.65
2019-01-31T02:17:07.903Z,793.60
2019-01-31T02:18:07.902Z,793.54
2019-01-31T02:19:07.900Z,793.52
2019-01-31T02:20:07.902Z,793.46
2019-01-31T02:21:07.898Z,793.46
2019-01-31T02:22:07.898Z,793.38
2019-01-31T02:23:07.899Z,793.35
2019-01-31T02:24:07.897Z,793.35
2019-01-31T02:25:07.898Z,793.39
2019-01-31T02:26:07.899Z,793.38
2019-01-31T02:27:07.896Z,793.37
2019-01-31T02:28:07.896Z,793.35
2019-01-31T02:29:07.894Z,793.35
2019-01-31T02:30:07.897Z,793.33
2019-01-31T02:31:07.894Z,793.29
2019-01-31T02:32:07.895Z,793.26
2019-01-31T02:33:07.897Z,793.26
2019-01-31T02:34:07.893Z,793.26
2019-01-31T02:35:07.892Z,793.24
2019-01-31T02:36:07.890Z,793.30
2019-01-31T02:37:07.891Z,793.31
2019-01-31T02:38:07.896Z,793.28
2019-01-31T02:39:07.894Z,793.27
2019-01-31T02:40:07.891Z,793.26
2019-01-31T02:41:07.899Z,793.25
2019-01-31T02:42:07.890Z,793.25
2019-01-31T02:43:07.894Z,793.21
2019-01-31T02:44:07.891Z,793.23
2019-01-31T02:45:07.887Z,793.23
2019-01-31T02:46:07.886Z,793.23
2019-01-31T02:47:07.889Z,793.26
2019-01-31T02:48:07.886Z,793.31
2019-01-31T02:49:07.893Z,793.31
2019-01-31T02:50:07.886Z,793.37
2019-01-31T02:51:07.885Z,793.38
2019-01-31T02:52:07.884Z,793.37
2019-01-31T02:53:07.884Z,793.36
2019-01-31T02:54:07.886Z,793.35
2019-01-31T02:55:07.885Z,793.35
2019-01-31T02:56:07.882Z,793.39
2019-01-31T02:57:07.883Z,793.37
2019-01-31T02:58:07.883Z,793.35
2019-01-31T02:59:07.886Z,793.33
2019-01-31T03:00:07.880Z,793.26
2019-01-31T03:01:07.881Z,793.29
2019-01-31T03:02:07.879Z,793.23
2019-01-31T03:03:07.878Z,793.24
2019-01-31T03:04:07.879Z,793.27
2019-01-31T03:05:07.877Z,793.19
2019-01-31T03:06:07.878Z,793.24
2019-01-31T03:07:07.878Z,793.16
2019-01-31T03:08:07.880Z,793.17
2019-01-31T03:09:07.880Z,793.16
2019-01-31T03:10:07.875Z,793.13
2019-01-31T03:11:07.878Z,793.13
2019-01-31T03:12:07.874Z,793.17
2019-01-31T03:13:07.880Z,793.11
2019-01-31T03:14:10.214Z,793.07
2019-01-31T03:15:07.872Z,793.10
2019-01-31T03:16:07.876Z,793.14
2019-01-31T03:17:07.870Z,793.18
2019-01-31T03:18:07.875Z,793.17
2019-01-31T03:19:07.874Z,793.10
2019-01-31T03:20:07.870Z,793.11
2019-01-31T03:21:07.883Z,793.13
2019-01-31T03:22:07.869Z,793.16
2019-01-31T03:23:07.866Z,793.16
2019-01-31T03:24:07.866Z,793.19
2019-01-31T03:25:07.870Z,793.24
2019-01-31T03:26:07.866Z,793.22
2019-01-31T03:27:07.867Z,793.23
2019-01-31T03:28:07.865Z,793.24
2019-01-31T03:29:07.864Z,793.25
2019-01-31T03:30:07.864Z,793.26
2019-01-31T03:31:07.863Z,793.28
2019-01-31T03:32:07.863Z,793.31
2019-01-31T03:33:07.935Z,793.32
2019-01-31T03:34:07.859Z,793.27
2019-01-31T03:35:07.859Z,793.24
2019-01-31T03:36:07.857Z,793.23
2019-01-31T03:37:07.857Z,793.15
2019-01-31T03:38:07.857Z,793.14
2019-01-31T03:39:07.856Z,793.10
2019-01-31T03:40:07.866Z,793.11
2019-01-31T03:41:07.853Z,793.12
2019-01-31T03:42:07.867Z,793.15
2019-01-31T03:43:07.855Z,793.13
2019-01-31T03:44:07.849Z,793.08
2019-01-31T03:45:07.852Z,792.96
2019-01-31T03:46:07.852Z,792.96
2019-01-31T03:47:07.849Z,792.96
2019-01-31T03:48:07.847Z,792.96
2019-01-31T03:49:07.846Z,792.98
2019-01-31T03:50:07.846Z,793.00
2019-01-31T03:51:07.843Z,793.02
2019-01-31T03:52:07.842Z,793.04
2019-01-31T03:53:07.841Z,793.05
2019-01-31T03:54:07.840Z,793.05
2019-01-31T03:55:07.840Z,793.01
2019-01-31T03:56:07.845Z,793.01
2019-01-31T03:57:07.836Z,793.03
2019-01-31T03:58:07.841Z,793.00
2019-01-31T03:59:07.835Z,793.01
2019-01-31T04:00:07.849Z,793.03
2019-01-31T04:01:07.830Z,793.01
2019-01-31T04:02:07.831Z,793.04
2019-01-31T04:03:07.828Z,793.03
2019-01-31T04:04:07.825Z,793.01
2019-01-31T04:05:07.827Z,792.99
2019-01-31T04:06:07.829Z,793.00
2019-01-31T04:07:07.824Z,792.99
2019-01-31T04:08:07.820Z,793.03
2019-01-31T04:09:07.898Z,792.98
2019-01-31T04:10:18.385Z,792.98
2019-01-31T04:11:07.819Z,792.98
2019-01-31T04:12:07.818Z,792.99
2019-01-31T04:13:07.818Z,793.02
2019-01-31T04:14:07.815Z,793.02
2019-01-31T04:15:07.813Z,793.03
2019-01-31T04:16:07.812Z,792.97
2019-01-31T04:17:07.814Z,792.99
2019-01-31T04:18:07.814Z,792.93
2019-01-31T04:19:07.809Z,792.94
2019-01-31T04:20:07.844Z,793.00
2019-01-31T04:21:07.974Z,793.01
2019-01-31T04:22:07.813Z,793.00
2019-01-31T04:23:07.807Z,793.01
2019-01-31T04:24:07.804Z,792.94
2019-01-31T04:25:07.812Z,792.97
2019-01-31T04:26:07.805Z,792.97
2019-01-31T04:27:07.800Z,792.98
2019-01-31T04:28:07.807Z,792.98
2019-01-31T04:29:07.798Z,792.98
2019-01-31T04:30:07.800Z,792.94
2019-01-31T04:31:07.809Z,793.02
2019-01-31T04:32:07.798Z,793.05
2019-01-31T04:33:07.793Z,792.99
2019-01-31T04:34:07.800Z,793.03
2019-01-31T04:35:07.800Z,792.97
2019-01-31T04:36:07.807Z,793.02
2019-01-31T04:37:07.791Z,793.03
2019-01-31T04:38:07.791Z,793.04
2019-01-31T04:39:07.792Z,793.03
2019-01-31T04:40:07.789Z,793.09
2019-01-31T04:41:07.785Z,793.10
2019-01-31T04:42:07.785Z,793.11
2019-01-31T04:43:07.786Z,793.07
2019-01-31T04:44:07.790Z,793.07
2019-01-31T04:45:07.787Z,793.14
2019-01-31T04:46:07.784Z,793.11
2019-01-31T04:47:07.784Z,793.12
2019-01-31T04:48:07.781Z,793.06
2019-01-31T04:49:07.781Z,793.02
2019-01-31T04:50:07.777Z,792.99
2019-01-31T04:51:07.777Z,792.93
2019-01-31T04:52:07.775Z,792.94
2019-01-31T04:53:07.774Z,792.93
2019-01-31T04:54:07.779Z,792.98
2019-01-31T04:55:07.775Z,792.95
2019-01-31T04:56:07.770Z,792.93
2019-01-31T04:57:07.773Z,792.87
2019-01-31T04:58:07.775Z,792.88
2019-01-31T04:59:07.769Z,792.88
2019-01-31T05:00:07.767Z,792.88
2019-01-31T05:01:07.768Z,792.91
2019-01-31T05:02:07.800Z,792.90
2019-01-31T05:03:07.773Z,792.87
2019-01-31T05:04:07.772Z,792.91
2019-01-31T05:05:07.764Z,792.95
2019-01-31T05:06:07.777Z,792.99
2019-01-31T05:07:07.763Z,793.03
2019-01-31T05:08:07.761Z,793.04
2019-01-31T05:09:07.763Z,793.05
2019-01-31T05:10:07.759Z,793.03
2019-01-31T05:11:07.759Z,793.07
2019-01-31T05:12:07.758Z,793.14
2019-01-31T05:13:07.759Z,793.11
2019-01-31T05:14:07.756Z,793.12
2019-01-31T05:15:07.755Z,793.09
2019-01-31T05:16:07.754Z,793.12
2019-01-31T05:17:07.752Z,793.05
2019-01-31T05:18:07.757Z,793.02
2019-01-31T05:19:07.751Z,792.96
2019-01-31T05:20:07.772Z,792.94
2019-01-31T05:21:07.753Z,792.89
2019-01-31T05:22:07.752Z,792.87
2019-01-31T05:23:07.747Z,792.90
2019-01-31T05:24:07.746Z,792.90
2019-01-31T05:25:07.750Z,792.88
2019-01-31T05:26:07.749Z,792.81
2019-01-31T05:27:07.745Z,792.80
2019-01-31T05:28:07.747Z,792.77
2019-01-31T05:29:07.744Z,792.74
2019-01-31T05:30:07.750Z,792.75
2019-01-31T05:31:07.744Z,792.75
2019-01-31T05:32:07.740Z,792.78
2019-01-31T05:33:07.741Z,792.79
2019-01-31T05:34:07.740Z,792.84
2019-01-31T05:35:07.738Z,792.87
2019-01-31T05:36:07.742Z,792.84
2019-01-31T05:37:07.738Z,792.85
2019-01-31T05:38:07.740Z,792.82
2019-01-31T05:39:07.734Z,792.84
2019-01-31T05:40:07.748Z,792.79
2019-01-31T05:41:07.734Z,792.79
2019-01-31T05:42:07.732Z,792.76
2019-01-31T05:43:07.734Z,792.77
2019-01-31T05:44:07.730Z,792.80
2019-01-31T05:45:07.728Z,792.79
2019-01-31T05:46:07.727Z,792.75
2019-01-31T05:47:07.728Z,792.79
2019-01-31T05:48:07.727Z,792.78
2019-01-31T05:49:07.724Z,792.79
2019-01-31T05:50:07.723Z,792.75
2019-01-31T05:51:07.722Z,792.76
2019-01-31T05:52:07.720Z,792.72
2019-01-31T05:53:07.731Z,792.81
2019-01-31T05:54:07.725Z,792.84
2019-01-31T05:55:07.725Z,792.86
2019-01-31T05:56:07.719Z,792.88
2019-01-31T05:57:07.724Z,792.82
2019-01-31T05:58:07.715Z,792.84
2019-01-31T05:59:07.715Z,792.82
2019-01-31T06:00:07.715Z,792.81
2019-01-31T06:01:07.716Z,792.84
2019-01-31T06:02:07.715Z,792.87
2019-01-31T06:03:07.718Z,792.84
2019-01-31T06:04:07.709Z,792.89
2019-01-31T06:05:07.708Z,792.82
2019-01-31T06:06:07.718Z,792.85
2019-01-31T06:07:11.214Z,792.88
2019-01-31T06:08:07.710Z,792.88
2019-01-31T06:09:07.706Z,792.88
2019-01-31T06:10:07.714Z,792.90
2019-01-31T06:11:08.103Z,792.95
2019-01-31T06:12:07.705Z,792.94
2019-01-31T06:13:07.705Z,792.94
2019-01-31T06:14:07.703Z,793.02
2019-01-31T06:15:07.701Z,792.98
2019-01-31T06:16:07.699Z,792.95
2019-01-31T06:17:07.700Z,792.98
2019-01-31T06:18:07.708Z,792.92
2019-01-31T06:19:07.709Z,792.99
2019-01-31T06:20:07.698Z,792.92
2019-01-31T06:21:07.698Z,792.88
2019-01-31T06:22:07.701Z,792.88
2019-01-31T06:23:07.694Z,792.89
2019-01-31T06:24:07.694Z,792.91
2019-01-31T06:25:07.695Z,792.98
2019-01-31T06:26:07.700Z,792.92
2019-01-31T06:27:07.694Z,792.93
2019-01-31T06:28:07.697Z,792.94
2019-01-31T06:29:07.690Z,792.96
2019-01-31T06:30:07.690Z,792.99
2019-01-31T06:31:07.689Z,793.00
2019-01-31T06:32:07.698Z,793.05
2019-01-31T06:33:07.694Z,793.03
2019-01-31T06:34:07.686Z,793.02
2019-01-31T06:35:07.686Z,793.01
2019-01-31T06:36:07.684Z,793.06
2019-01-31T06:37:07.684Z,793.08
2019-01-31T06:38:07.685Z,793.08
2019-01-31T06:39:07.685Z,793.05
2019-01-31T06:40:07.681Z,793.03
2019-01-31T06:41:18.039Z,793.07
2019-01-31T06:42:07.684Z,793.08
2019-01-31T06:43:07.679Z,793.10
2019-01-31T06:44:07.678Z,793.09
2019-01-31T06:45:07.677Z,793.04
2019-01-31T06:46:07.679Z,793.01
2019-01-31T06:47:07.681Z,793.03
2019-01-31T06:48:07.678Z,793.00
2019-01-31T06:49:07.676Z,793.03
2019-01-31T06:50:07.676Z,793.07
2019-01-31T06:51:07.679Z,793.08
2019-01-31T06:52:07.675Z,793.09
2019-01-31T06:53:07.674Z,793.11
2019-01-31T06:54:07.888Z,793.16
2019-01-31T06:55:07.682Z,793.12
2019-01-31T06:56:07.670Z,793.16
2019-01-31T06:57:07.675Z,793.18
2019-01-31T06:58:07.718Z,793.15
2019-01-31T06:59:07.671Z,793.12
2019-01-31T07:00:07.667Z,793.11
2019-01-31T07:01:07.669Z,793.11
2019-01-31T07:02:07.665Z,793.07
2019-01-31T07:03:07.664Z,793.14
2019-01-31T07:04:07.667Z,793.19
2019-01-31T07:05:07.663Z,793.21
2019-01-31T07:06:07.662Z,793.20
2019-01-31T07:07:07.770Z,793.22
2019-01-31T07:08:07.665Z,793.24
2019-01-31T07:09:07.661Z,793.25
2019-01-31T07:10:07.663Z,793.23
2019-01-31T07:11:07.661Z,793.25
2019-01-31T07:12:07.658Z,793.29
2019-01-31T07:13:07.664Z,793.34
2019-01-31T07:14:07.659Z,793.35
2019-01-31T07:15:07.661Z,793.33
2019-01-31T07:16:07.656Z,793.38
2019-01-31T07:17:07.655Z,793.41
2019-01-31T07:18:07.657Z,793.43
2019-01-31T07:19:07.653Z,793.44
2019-01-31T07:20:07.663Z,793.46
2019-01-31T07:21:07.652Z,793.42
2019-01-31T07:22:07.652Z,793.44
2019-01-31T07:23:07.654Z,793.39
2019-01-31T07:24:07.734Z,793.37
2019-01-31T07:25:07.651Z,793.40
2019-01-31T07:26:07.653Z,793.43
2019-01-31T07:27:07.653Z,793.45
2019-01-31T07:28:07.651Z,793.47
2019-01-31T07:29:07.648Z,793.51
2019-01-31T07:30:07.650Z,793.46
2019-01-31T07:31:07.651Z,793.44
2019-01-31T07:32:07.646Z,793.48
2019-01-31T07:33:07.646Z,793.56
2019-01-31T07:34:07.646Z,793.58
2019-01-31T07:35:07.650Z,793.54
2019-01-31T07:36:07.651Z,793.56
2019-01-31T07:37:07.647Z,793.55
2019-01-31T07:38:07.647Z,793.50
2019-01-31T07:39:07.645Z,793.49
2019-01-31T07:40:07.646Z,793.46
2019-01-31T07:41:07.643Z,793.41
2019-01-31T07:42:07.650Z,793.47
2019-01-31T07:43:07.647Z,793.50
2019-01-31T07:44:07.644Z,793.51
2019-01-31T07:45:07.652Z,793.57
2019-01-31T07:46:07.644Z,793.54
2019-01-31T07:47:07.647Z,793.49
2019-01-31T07:48:07.641Z,793.50
2019-01-31T07:49:07.641Z,793.51
2019-01-31T07:50:07.641Z,793.57
2019-01-31T07:51:07.643Z,793.59
2019-01-31T07:52:07.639Z,793.60
2019-01-31T07:53:07.639Z,793.63
2019-01-31T07:54:07.640Z,793.63
2019-01-31T07:55:07.639Z,793.63
2019-01-31T07:56:07.641Z,793.61
2019-01-31T07:57:07.639Z,793.58
2019-01-31T07:58:07.644Z,793.56
2019-01-31T07:59:07.641Z,793.59
2019-01-31T08:00:07.638Z,793.62
2019-01-31T08:01:07.636Z,793.61
2019-01-31T08:02:07.636Z,793.59
2019-01-31T08:03:07.637Z,793.56
2019-01-31T08:04:07.638Z,793.57
2019-01-31T08:05:07.637Z,793.56
2019-01-31T08:06:07.638Z,793.59
2019-01-31T08:07:07.637Z,793.63
2019-01-31T08:08:07.635Z,793.66
2019-01-31T08:09:07.632Z,793.60
2019-01-31T08:10:07.633Z,793.60
2019-01-31T08:11:07.633Z,793.62
2019-01-31T08:12:07.631Z,793.60
2019-01-31T08:13:07.635Z,793.63
2019-01-31T08:14:07.635Z,793.72
2019-01-31T08:15:07.834Z,793.72
2019-01-31T08:16:07.632Z,793.76
2019-01-31T08:17:07.634Z,793.77
2019-01-31T08:18:07.633Z,793.79
2019-01-31T08:19:07.634Z,793.74
2019-01-31T08:20:07.629Z,793.74
2019-01-31T08:21:07.629Z,793.79
2019-01-31T08:22:07.632Z,793.76
2019-01-31T08:23:07.632Z,793.80
2019-01-31T08:24:09.558Z,793.88
2019-01-31T08:25:07.632Z,793.90
2019-01-31T08:26:07.634Z,793.93
2019-01-31T08:27:07.631Z,793.91
2019-01-31T08:28:07.636Z,793.93
2019-01-31T08:29:07.630Z,793.91
2019-01-31T08:30:07.631Z,793.91
2019-01-31T08:31:07.631Z,793.98
2019-01-31T08:32:07.632Z,793.97
2019-01-31T08:33:07.635Z,793.99
2019-01-31T08:34:07.634Z,793.98
2019-01-31T08:35:07.632Z,794.00
2019-01-31T08:36:07.633Z,793.99
2019-01-31T08:37:07.632Z,794.01
2019-01-31T08:38:07.635Z,793.98
2019-01-31T08:39:07.635Z,793.95
2019-01-31T08:40:07.642Z,794.01
2019-01-31T08:41:07.636Z,794.02
2019-01-31T08:42:07.636Z,794.00
2019-01-31T08:43:07.638Z,793.99
2019-01-31T08:44:07.641Z,793.99
2019-01-31T08:45:07.639Z,793.96
2019-01-31T08:46:07.641Z,793.91
2019-01-31T08:47:07.645Z,793.91
2019-01-31T08:48:07.645Z,793.92
2019-01-31T08:49:07.646Z,793.93
2019-01-31T08:50:07.650Z,793.93
2019-01-31T08:51:07.649Z,793.91
2019-01-31T08:52:07.652Z,793.89
2019-01-31T08:53:07.670Z,793.90
2019-01-31T08:54:07.658Z,793.91
2019-01-31T08:55:07.657Z,793.88
2019-01-31T08:56:07.657Z,793.87
2019-01-31T08:57:07.665Z,793.93
2019-01-31T08:58:07.661Z,793.94
2019-01-31T08:59:07.663Z,794.00
2019-01-31T09:00:07.665Z,794.00
2019-01-31T09:01:07.668Z,793.93
2019-01-31T09:02:07.672Z,793.93
2019-01-31T09:03:07.678Z,793.97
2019-01-31T09:04:07.673Z,793.96
2019-01-31T09:05:07.676Z,794.00
2019-01-31T09:06:07.680Z,794.02
2019-01-31T09:07:07.685Z,794.06
2019-01-31T09:08:07.683Z,794.07
2019-01-31T09:09:07.694Z,794.09
2019-01-31T09:10:07.690Z,794.12
2019-01-31T09:11:07.692Z,794.07
2019-01-31T09:12:15.006Z,794.02
2019-01-31T09:13:07.691Z,794.01
2019-01-31T09:14:07.698Z,794.06
2019-01-31T09:15:07.699Z,794.04
2019-01-31T09:16:07.700Z,794.07
2019-01-31T09:17:07.703Z,794.09
2019-01-31T09:18:07.706Z,794.08
2019-01-31T09:19:07.709Z,794.06
2019-01-31T09:20:07.713Z,794.09
2019-01-31T09:21:07.715Z,794.09
2019-01-31T09:22:07.717Z,794.10
2019-01-31T09:23:07.718Z,794.12
2019-01-31T09:24:07.723Z,794.17
2019-01-31T09:25:07.724Z,794.14
2019-01-31T09:26:07.726Z,794.20
2019-01-31T09:27:07.732Z,794.17
2019-01-31T09:28:07.739Z,794.15
2019-01-31T09:29:07.735Z,794.17
2019-01-31T09:30:07.738Z,794.16
2019-01-31T09:31:07.742Z,794.16
2019-01-31T09:32:07.745Z,794.20
2019-01-31T09:33:07.744Z,794.23
2019-01-31T09:34:07.748Z,794.23
2019-01-31T09:35:07.752Z,794.20
2019-01-31T09:36:07.753Z,794.22
2019-01-31T09:37:07.756Z,794.21
2019-01-31T09:38:07.761Z,794.22
2019-01-31T09:39:07.761Z,794.24
2019-01-31T09:40:07.765Z,794.27
2019-01-31T09:41:08.505Z,794.29
2019-01-31T09:42:07.769Z,794.25
2019-01-31T09:43:07.772Z,794.30
2019-01-31T09:44:07.778Z,794.30
2019-01-31T09:45:07.779Z,794.25
2019-01-31T09:46:07.786Z,794.29
2019-01-31T09:47:07.783Z,794.28
2019-01-31T09:48:07.785Z,794.33
2019-01-31T09:49:07.789Z,794.32
2019-01-31T09:50:07.794Z,794.35
2019-01-31T09:51:07.800Z,794.37
2019-01-31T09:52:07.800Z,794.35
2019-01-31T09:53:07.799Z,794.38
2019-01-31T09:54:07.807Z,794.40
2019-01-31T09:55:07.808Z,794.35
2019-01-31T09:56:07.812Z,794.40
2019-01-31T09:57:07.812Z,794.41
2019-01-31T09:58:07.816Z,794.45
2019-01-31T09:59:07.818Z,794.47
2019-01-31T10:00:07.821Z,794.51
2019-01-31T10:01:07.824Z,794.47
2019-01-31T10:02:07.827Z,794.51
2019-01-31T10:03:07.831Z,794.57
2019-01-31T10:04:07.866Z,794.53
2019-01-31T10:05:07.838Z,794.50
2019-01-31T10:06:07.842Z,794.52
2019-01-31T10:07:07.843Z,794.46
2019-01-31T10:08:07.851Z,794.49
2019-01-31T10:09:07.854Z,794.49
2019-01-31T10:10:07.859Z,794.53
2019-01-31T10:11:07.873Z,794.54
2019-01-31T10:12:07.902Z,794.50
2019-01-31T10:13:07.865Z,794.50
2019-01-31T10:14:07.926Z,794.53
2019-01-31T10:15:07.874Z,794.53
2019-01-31T10:16:07.981Z,794.54
2019-01-31T10:17:07.905Z,794.54
2019-01-31T10:18:08.090Z,794.52
2019-01-31T10:19:07.901Z,794.52
2019-01-31T10:20:07.938Z,794.49
2019-01-31T10:21:07.970Z,794.52
2019-01-31T10:22:07.997Z,794.51
2019-01-31T10:23:07.945Z,794.50
2019-01-31T10:24:08.047Z,794.46
2019-01-31T10:25:07.912Z,794.43
2019-01-31T10:26:07.915Z,794.48
2019-01-31T10:27:07.919Z,794.46
2019-01-31T10:28:07.920Z,794.49
2019-01-31T10:29:07.927Z,794.50
2019-01-31T10:30:07.929Z,794.52
2019-01-31T10:31:07.938Z,794.55
2019-01-31T10:32:07.938Z,794.51
2019-01-31T10:33:07.943Z,794.54
2019-01-31T10:34:07.949Z,794.57
2019-01-31T10:35:07.953Z,794.61
2019-01-31T10:36:07.956Z,794.61
2019-01-31T10:37:07.961Z,794.62
2019-01-31T10:38:07.964Z,794.65
2019-01-31T10:39:07.970Z,794.60
2019-01-31T10:40:07.973Z,794.58
2019-01-31T10:41:07.979Z,794.59
2019-01-31T10:42:07.982Z,794.56
2019-01-31T10:43:07.995Z,794.55
2019-01-31T10:44:07.993Z,794.50
2019-01-31T10:45:07.997Z,794.47
2019-01-31T10:46:08.001Z,794.47
2019-01-31T10:47:08.009Z,794.45
2019-01-31T10:48:08.011Z,794.49
2019-01-31T10:49:08.017Z,794.46
2019-01-31T10:50:08.025Z,794.41
2019-01-31T10:51:08.028Z,794.44
2019-01-31T10:52:08.032Z,794.42
2019-01-31T10:53:08.036Z,794.42
2019-01-31T10:54:08.041Z,794.39
2019-01-31T10:55:08.051Z,794.35
2019-01-31T10:56:08.055Z,794.34
2019-01-31T10:57:08.058Z,794.32
2019-01-31T10:58:08.119Z,794.31
2019-01-31T10:59:08.069Z,794.31
2019-01-31T11:00:08.077Z,794.32
2019-01-31T11:01:08.079Z,794.29
2019-01-31T11:02:08.086Z,794.26
2019-01-31T11:03:08.091Z,794.26
2019-01-31T11:04:08.099Z,794.22
2019-01-31T11:05:08.103Z,794.22
2019-01-31T11:06:08.113Z,794.19
2019-01-31T11:07:08.117Z,794.20
2019-01-31T11:08:08.120Z,794.18
2019-01-31T11:09:08.124Z,794.17
2019-01-31T11:10:08.131Z,794.11
2019-01-31T11:11:08.136Z,794.11
2019-01-31T11:12:08.147Z,794.11
2019-01-31T11:13:08.147Z,794.07
2019-01-31T11:14:08.155Z,794.12
2019-01-31T11:15:08.160Z,794.12
2019-01-31T11:16:08.167Z,794.10
2019-01-31T11:17:08.171Z,794.08
2019-01-31T11:18:08.179Z,794.04
2019-01-31T11:19:12.473Z,793.99
2019-01-31T11:20:08.187Z,794.01
2019-01-31T11:21:08.194Z,793.98
2019-01-31T11:22:08.201Z,793.96
2019-01-31T11:23:08.208Z,793.93
2019-01-31T11:24:08.321Z,793.96
2019-01-31T11:25:08.217Z,793.98
2019-01-31T11:26:08.223Z,793.98
2019-01-31T11:27:08.228Z,793.96
2019-01-31T11:28:08.237Z,793.92
2019-01-31T11:29:08.243Z,793.93
2019-01-31T11:30:08.246Z,793.93
2019-01-31T11:31:08.252Z,793.90
2019-01-31T11:32:08.260Z,793.88
2019-01-31T11:33:08.271Z,793.92
2019-01-31T11:34:08.270Z,793.88
2019-01-31T11:35:08.278Z,793.88
2019-01-31T11:36:08.284Z,793.85
2019-01-31T11:37:08.289Z,793.85
2019-01-31T11:38:08.300Z,793.87
2019-01-31T11:39:08.304Z,793.83
2019-01-31T11:40:08.309Z,793.84
2019-01-31T11:41:08.314Z,793.88
2019-01-31T11:42:08.322Z,793.83
2019-01-31T11:43:11.878Z,793.82
2019-01-31T11:44:08.333Z,793.80
2019-01-31T11:45:08.341Z,793.81
2019-01-31T11:46:08.350Z,793.82
2019-01-31T11:47:08.358Z,793.80
2019-01-31T11:48:08.360Z,793.75
2019-01-31T11:49:08.370Z,793.76
2019-01-31T11:50:08.376Z,793.76
2019-01-31T11:51:08.379Z,793.81
2019-01-31T11:52:08.387Z,793.73
2019-01-31T11:53:08.392Z,793.71
2019-01-31T11:54:08.401Z,793.71
2019-01-31T11:55:08.409Z,793.68
2019-01-31T11:56:08.412Z,793.66
2019-01-31T11:57:08.422Z,793.66
2019-01-31T11:58:08.425Z,793.63
2019-01-31T11:59:08.436Z,793.69
2019-01-31T12:00:08.439Z,793.66
2019-01-31T12:01:08.449Z,793.58
2019-01-31T12:02:08.455Z,793.58
2019-01-31T12:03:08.459Z,793.64
2019-01-31T12:04:08.467Z,793.62
2019-01-31T12:05:08.473Z,793.61
2019-01-31T12:06:08.478Z,793.59
2019-01-31T12:07:08.487Z,793.61
2019-01-31T12:08:08.491Z,793.56
2019-01-31T12:09:08.497Z,793.56
2019-01-31T12:10:08.507Z,793.56
2019-01-31T12:11:08.512Z,793.54
2019-01-31T12:12:08.520Z,793.57
2019-01-31T12:13:08.531Z,793.52
2019-01-31T12:14:08.535Z,793.47
2019-01-31T12:15:08.538Z,793.51
2019-01-31T12:16:08.544Z,793.50
2019-01-31T12:17:08.551Z,793.54
2019-01-31T12:18:08.557Z,793.46
2019-01-31T12:19:08.569Z,793.44
2019-01-31T12:20:08.571Z,793.40
2019-01-31T12:21:08.577Z,793.40
2019-01-31T12:22:08.630Z,793.36
2019-01-31T12:23:08.592Z,793.40
2019-01-31T12:24:16.077Z,793.39
2019-01-31T12:25:08.604Z,793.37
2019-01-31T12:26:08.611Z,793.34
2019-01-31T12:27:08.619Z,793.37
2019-01-31T12:28:08.622Z,793.36